Time;durP1;ratioP1;P1;durP2;ratioP2;P2;SDS_P1;SDS_P2;PMS_P1;PMS_P2;Temp;Humidity;BMP_temperature;BMP_pressure;BME280_temperature;BME280_humidity;BME280_pressure;Samples;Min_cycle;Max_cycle;Signal;HPM_P1;HPM_P2
2021/01/30 00:02:08;;;;;;;1.50;1.10;;;24.10;63.50;;;;;;5035141;28;20474;-67
2021/01/30 00:04:36;;;;;;;1.60;1.50;;;24.10;63.50;;;;;;5034821;28;20450;-68
2021/01/30 00:07:03;;;;;;;1.30;1.20;;;24.10;63.50;;;;;;5035539;28;20543;-68
2021/01/30 00:09:30;;;;;;;1.53;1.43;;;24.10;63.50;;;;;;5035778;28;20812;-67
2021/01/30 00:12:00;;;;;;;1.53;1.17;;;24.20;63.50;;;;;;5035010;28;20452;-68
2021/01/30 00:14:28;;;;;;;1.30;1.10;;;24.10;63.50;;;;;;5034535;28;20826;-67
2021/01/30 00:16:54;;;;;;;1.27;1.10;;;24.10;63.30;;;;;;5034903;28;20466;-67
2021/01/30 00:19:21;;;;;;;1.30;1.00;;;24.10;63.30;;;;;;5034834;28;20447;-68
2021/01/30 00:21:51;;;;;;;1.30;1.00;;;24.10;63.30;;;;;;5034453;28;20445;-67
2021/01/30 00:24:18;;;;;;;1.20;1.00;;;24.10;63.40;;;;;;5034416;28;20978;-67
2021/01/30 00:26:48;;;;;;;1.30;1.10;;;24.10;63.30;;;;;;5034672;28;20445;-68
2021/01/30 00:29:15;;;;;;;1.00;0.80;;;24.10;63.30;;;;;;5034299;28;20476;-67
2021/01/30 00:31:41;;;;;;;1.23;1.13;;;24.10;63.40;;;;;;5034601;28;20444;-67
2021/01/30 00:34:07;;;;;;;1.20;1.10;;;24.10;63.30;;;;;;5034252;28;20535;-68
2021/01/30 00:36:34;;;;;;;1.43;1.33;;;24.10;63.20;;;;;;5034565;28;20799;-67
2021/01/30 00:39:00;;;;;;;1.40;0.90;;;24.10;63.30;;;;;;5034456;28;20448;-68
2021/01/30 00:41:26;;;;;;;1.20;1.10;;;24.10;63.10;;;;;;5034409;28;20443;-68
2021/01/30 00:43:52;;;;;;;1.10;0.87;;;24.10;63.30;;;;;;5034342;28;20446;-68
2021/01/30 00:46:20;;;;;;;1.20;0.90;;;24.10;63.30;;;;;;5034414;28;20796;-67
2021/01/30 00:48:46;;;;;;;1.13;1.00;;;24.10;63.10;;;;;;5034269;28;20495;-67
2021/01/30 00:51:15;;;;;;;1.70;1.50;;;24.10;63.10;;;;;;5034237;28;20452;-67
2021/01/30 00:53:42;;;;;;;1.50;1.07;;;24.10;63.00;;;;;;5034184;28;20533;-68
2021/01/30 00:56:08;;;;;;;1.03;0.83;;;24.10;62.90;;;;;;5033889;28;20939;-66
2021/01/30 00:58:34;;;;;;;1.57;0.90;;;24.00;62.90;;;;;;5034081;28;20453;-68
2021/01/30 01:01:01;;;;;;;1.53;0.80;;;24.00;62.90;;;;;;5033801;28;20948;-67
2021/01/30 01:03:28;;;;;;;1.00;0.90;;;24.10;63.00;;;;;;5033768;28;20448;-67
2021/01/30 01:05:54;;;;;;;1.20;1.00;;;24.00;62.90;;;;;;5033935;28;20444;-67
2021/01/30 01:08:20;;;;;;;1.10;0.90;;;24.00;62.80;;;;;;5033888;28;20489;-66
2021/01/30 01:10:46;;;;;;;1.60;1.10;;;24.00;62.70;;;;;;5033908;28;20439;-66
2021/01/30 01:13:16;;;;;;;1.00;0.80;;;24.00;62.60;;;;;;5033903;28;20443;-68
2021/01/30 01:15:42;;;;;;;1.10;0.90;;;24.00;62.70;;;;;;5033534;28;21017;-68
2021/01/30 01:18:09;;;;;;;1.20;0.90;;;24.00;62.50;;;;;;5033539;28;20448;-68
2021/01/30 01:20:36;;;;;;;1.30;1.07;;;24.00;62.60;;;;;;5033786;28;20452;-68
2021/01/30 01:23:02;;;;;;;1.10;0.80;;;24.00;62.60;;;;;;5033751;28;20834;-68
2021/01/30 01:25:29;;;;;;;1.00;0.70;;;24.00;63.40;;;;;;5033016;28;20487;-68
2021/01/30 01:27:55;;;;;;;1.37;1.00;;;24.00;62.40;;;;;;5033260;28;20447;-68
2021/01/30 01:30:24;;;;;;;1.27;0.93;;;24.00;62.50;;;;;;5033407;28;20977;-68
2021/01/30 01:32:51;;;;;;;1.00;0.80;;;24.00;62.50;;;;;;5033707;28;20444;-67
2021/01/30 01:35:22;;;;;;;1.00;0.80;;;24.00;62.20;;;;;;5033265;28;20468;-68
2021/01/30 01:37:51;;;;;;;1.10;0.90;;;24.00;62.10;;;;;;5033656;28;20437;-67
2021/01/30 01:40:19;;;;;;;1.00;0.83;;;24.00;62.50;;;;;;5033599;28;20540;-67
2021/01/30 01:42:45;;;;;;;1.10;0.80;;;24.00;62.30;;;;;;5033286;28;20453;-67
2021/01/30 01:45:13;;;;;;;1.13;1.00;;;24.00;62.20;;;;;;5033513;28;20451;-67
2021/01/30 01:47:43;;;;;;;1.10;0.93;;;23.90;62.10;;;;;;5033557;28;20444;-69
2021/01/30 01:50:30;;;;;;;1.00;0.80;;;24.00;62.20;;;;;;5033550;28;20795;-68
2021/01/30 01:53:04;;;;;;;1.00;0.80;;;24.00;62.00;;;;;;5033474;28;21221;-67
2021/01/30 01:55:30;;;;;;;1.20;0.80;;;23.90;61.90;;;;;;5033174;28;20436;-68
2021/01/30 01:57:59;;;;;;;1.10;1.00;;;23.90;62.00;;;;;;5033144;28;20976;-68
2021/01/30 02:03:53;;;;;;;1.10;1.00;;;24.00;61.90;;;;;;5033296;28;20405;-68
2021/01/30 02:06:20;;;;;;;0.90;0.70;;;23.90;61.90;;;;;;5033421;28;20499;-68
2021/01/30 02:08:48;;;;;;;1.00;0.80;;;23.90;61.80;;;;;;5033272;28;20483;-67
2021/01/30 02:11:14;;;;;;;1.13;1.03;;;23.90;61.70;;;;;;5033011;28;20439;-67
2021/01/30 02:13:44;;;;;;;0.90;0.60;;;23.90;61.80;;;;;;5033272;28;20888;-66
2021/01/30 02:16:19;;;;;;;1.07;0.90;;;23.90;62.10;;;;;;5033258;28;20498;-67
2021/01/30 02:18:56;;;;;;;1.10;1.00;;;23.90;61.60;;;;;;5033292;28;20447;-67
2021/01/30 02:21:55;;;;;;;1.00;0.90;;;23.90;61.60;;;;;;5033264;28;20438;-67
2021/01/30 02:31:31;;;;;;;1.80;0.90;;;23.90;61.90;;;;;;4960987;28;20411;-68
2021/01/30 02:34:22;;;;;;;1.10;1.00;;;23.80;61.70;;;;;;5032889;28;20815;-68
2021/01/30 02:36:54;;;;;;;1.00;0.80;;;23.90;61.80;;;;;;4997214;28;20466;-68
2021/01/30 02:39:24;;;;;;;1.10;0.93;;;23.80;61.60;;;;;;5036894;28;20436;-68
2021/01/30 02:41:59;;;;;;;1.20;1.10;;;23.90;61.60;;;;;;5036475;28;20914;-67
2021/01/30 02:44:27;;;;;;;1.40;1.00;;;23.90;61.70;;;;;;5036625;28;20451;-68
2021/01/30 02:46:56;;;;;;;1.10;1.00;;;23.90;61.50;;;;;;5036655;28;20865;-68
2021/01/30 02:49:27;;;;;;;1.37;1.20;;;23.80;61.30;;;;;;5036153;28;21046;-68
2021/01/30 02:52:04;;;;;;;1.10;0.90;;;23.90;61.40;;;;;;5036501;28;20510;-68
2021/01/30 02:54:35;;;;;;;1.13;0.80;;;23.90;62.40;;;;;;5037040;28;20436;-68
2021/01/30 02:57:01;;;;;;;1.10;0.90;;;23.90;61.60;;;;;;5036573;28;20437;-68
2021/01/30 02:59:29;;;;;;;1.10;1.00;;;23.80;61.10;;;;;;5036371;28;20502;-68
2021/01/30 03:01:56;;;;;;;1.00;0.90;;;23.80;61.30;;;;;;5036283;28;20534;-66
2021/01/30 03:04:26;;;;;;;1.10;1.00;;;23.80;61.20;;;;;;5036322;28;20441;-66
2021/01/30 03:07:25;;;;;;;1.20;1.10;;;23.80;61.10;;;;;;5036200;28;20524;-67
2021/01/30 03:09:59;;;;;;;1.00;0.80;;;23.80;60.90;;;;;;5035729;28;21015;-67
2021/01/30 03:12:34;;;;;;;1.20;1.10;;;23.80;60.90;;;;;;5036153;28;20432;-67
2021/01/30 03:15:08;;;;;;;1.27;0.90;;;23.80;61.70;;;;;;5035761;28;20440;-67
2021/01/30 03:17:35;;;;;;;1.17;1.00;;;23.80;60.90;;;;;;5036053;28;20435;-68
2021/01/30 03:20:01;;;;;;;1.00;0.90;;;23.80;61.10;;;;;;5035952;28;20453;-66
2021/01/30 03:22:31;;;;;;;1.07;0.97;;;23.80;61.00;;;;;;5035903;28;20440;-67
2021/01/30 03:24:59;;;;;;;1.10;1.00;;;23.80;61.10;;;;;;5035910;28;20450;-67
2021/01/30 03:27:29;;;;;;;1.60;1.00;;;23.80;61.10;;;;;;5036617;28;20480;-67
2021/01/30 03:29:56;;;;;;;1.17;1.07;;;23.80;61.00;;;;;;5035764;28;20863;-68
2021/01/30 03:32:23;;;;;;;1.10;1.00;;;23.80;60.90;;;;;;5035696;28;20441;-67
2021/01/30 03:34:52;;;;;;;1.20;0.93;;;23.80;60.90;;;;;;5035353;28;20544;-66
2021/01/30 03:37:20;;;;;;;1.07;0.80;;;23.80;60.80;;;;;;5035369;28;20444;-67
2021/01/30 03:39:46;;;;;;;1.03;0.90;;;23.80;60.60;;;;;;5035633;28;20448;-67
2021/01/30 03:42:14;;;;;;;1.10;0.90;;;23.80;60.90;;;;;;5035547;28;20489;-68
2021/01/30 03:44:41;;;;;;;1.07;0.90;;;23.80;60.60;;;;;;5035475;28;20474;-68
2021/01/30 03:47:07;;;;;;;1.00;0.80;;;23.80;60.80;;;;;;5035430;28;20445;-68
2021/01/30 03:49:34;;;;;;;1.10;0.90;;;23.80;60.80;;;;;;5034420;28;20487;-67
2021/01/30 03:52:00;;;;;;;1.00;0.80;;;23.80;60.80;;;;;;5035096;28;20451;-68
2021/01/30 03:54:26;;;;;;;1.00;0.90;;;23.80;60.70;;;;;;5035319;28;20452;-68
2021/01/30 03:56:53;;;;;;;1.03;0.83;;;23.80;60.60;;;;;;5035318;28;20946;-67
2021/01/30 03:59:21;;;;;;;1.00;0.90;;;23.80;60.60;;;;;;5035289;28;20935;-67
2021/01/30 04:01:48;;;;;;;1.23;1.13;;;23.80;60.30;;;;;;5035234;28;20444;-68
2021/01/30 04:04:14;;;;;;;1.20;1.10;;;23.80;60.40;;;;;;5034841;28;21017;-68
2021/01/30 04:06:45;;;;;;;1.20;0.90;;;23.80;60.50;;;;;;5035120;28;20442;-67
2021/01/30 04:09:11;;;;;;;1.30;1.20;;;23.80;60.40;;;;;;5034973;28;20500;-66
2021/01/30 04:11:41;;;;;;;1.93;1.20;;;23.80;60.20;;;;;;5034674;28;20452;-67
2021/01/30 04:14:08;;;;;;;1.20;1.03;;;23.80;60.40;;;;;;5034633;28;20443;-67
2021/01/30 04:16:35;;;;;;;1.10;1.00;;;23.80;60.30;;;;;;5034894;28;20847;-67
2021/01/30 04:19:01;;;;;;;1.00;0.90;;;23.80;60.40;;;;;;5034826;28;20445;-68
2021/01/30 04:21:27;;;;;;;1.20;1.10;;;23.70;60.10;;;;;;5034789;28;20451;-68
2021/01/30 04:23:54;;;;;;;1.43;1.20;;;23.70;60.00;;;;;;5034769;28;20806;-68
2021/01/30 04:26:21;;;;;;;1.20;1.10;;;23.80;60.20;;;;;;5034694;28;20452;-68
2021/01/30 04:28:48;;;;;;;1.30;1.20;;;23.70;60.00;;;;;;5034568;28;20487;-68
2021/01/30 04:31:14;;;;;;;1.00;0.90;;;23.80;59.80;;;;;;5034535;28;20450;-68
2021/01/30 04:33:42;;;;;;;1.30;1.20;;;23.70;60.30;;;;;;5034421;28;20517;-68
2021/01/30 04:36:08;;;;;;;1.20;1.10;;;23.70;59.80;;;;;;5034568;28;20432;-67
2021/01/30 04:38:34;;;;;;;1.30;1.20;;;23.70;59.90;;;;;;5034491;28;20440;-68
2021/01/30 04:41:08;;;;;;;1.30;1.20;;;23.70;59.90;;;;;;5034412;28;20454;-68
2021/01/30 04:43:39;;;;;;;1.03;0.93;;;23.70;59.80;;;;;;5034397;28;20436;-68
2021/01/30 04:46:13;;;;;;;1.10;1.00;;;23.80;59.90;;;;;;5034421;28;20440;-68
2021/01/30 04:48:50;;;;;;;1.10;1.00;;;23.70;59.90;;;;;;5034228;28;20476;-67
2021/01/30 04:54:57;;;;;;;1.40;1.30;;;23.70;60.00;;;;;;5034037;28;20422;-67
2021/01/30 04:57:35;;;;;;;1.07;0.97;;;23.70;60.00;;;;;;5033859;28;20447;-67
2021/01/30 05:00:21;;;;;;;1.30;1.20;;;23.70;60.00;;;;;;5033788;28;20443;-66
2021/01/30 05:02:58;;;;;;;1.20;1.10;;;23.70;59.80;;;;;;5034150;28;20433;-68
2021/01/30 05:05:28;;;;;;;1.10;1.00;;;23.70;59.70;;;;;;5034051;28;20428;-67
2021/01/30 05:07:59;;;;;;;1.10;0.90;;;23.70;59.80;;;;;;5033712;28;20432;-68
2021/01/30 05:10:29;;;;;;;1.00;0.90;;;23.70;60.00;;;;;;5034004;28;20432;-67
2021/01/30 05:13:00;;;;;;;1.10;0.90;;;23.70;60.00;;;;;;5033905;28;20436;-68
2021/01/30 05:15:32;;;;;;;0.97;0.80;;;23.70;59.90;;;;;;5033988;28;20432;-68
2021/01/30 05:18:01;;;;;;;1.10;1.00;;;23.70;60.10;;;;;;5033638;28;20516;-68
2021/01/30 05:20:32;;;;;;;1.20;1.10;;;23.70;60.10;;;;;;5033803;28;20448;-67
2021/01/30 05:23:01;;;;;;;1.10;1.00;;;23.70;60.10;;;;;;5033893;28;20783;-67
2021/01/30 05:25:27;;;;;;;1.10;0.90;;;23.70;60.20;;;;;;5033765;28;20808;-68
2021/01/30 05:28:15;;;;;;;1.10;0.97;;;23.70;60.00;;;;;;5033425;28;20448;-68
2021/01/30 05:30:53;;;;;;;1.10;0.83;;;23.90;60.50;;;;;;5033771;28;20449;-68
2021/01/30 05:33:37;;;;;;;1.73;1.20;;;23.80;60.40;;;;;;5033270;28;20938;-67
2021/01/30 05:36:09;;;;;;;1.10;1.00;;;23.80;60.50;;;;;;5033349;28;20448;-68
2021/01/30 05:38:49;;;;;;;1.20;1.10;;;23.70;60.40;;;;;;5033662;28;20436;-67
2021/01/30 05:41:20;;;;;;;1.10;0.93;;;23.80;60.50;;;;;;5033614;28;20791;-67
2021/01/30 05:43:53;;;;;;;1.10;0.97;;;23.80;60.40;;;;;;5033312;28;20426;-67
2021/01/30 05:46:23;;;;;;;1.00;0.90;;;23.80;60.40;;;;;;5033569;28;20443;-68
2021/01/30 05:48:51;;;;;;;1.10;0.93;;;23.80;60.20;;;;;;5033527;28;20485;-67
2021/01/30 05:51:22;;;;;;;0.90;0.80;;;23.90;60.40;;;;;;5033520;28;20456;-67
2021/01/30 05:53:49;;;;;;;1.00;0.90;;;23.80;60.40;;;;;;5033164;28;20912;-68
2021/01/30 05:56:16;;;;;;;1.10;1.00;;;23.80;60.30;;;;;;5033129;28;20988;-67
2021/01/30 05:58:44;;;;;;;1.00;0.77;;;23.80;60.00;;;;;;5033451;28;20448;-68
2021/01/30 06:01:26;;;;;;;1.00;0.90;;;23.80;60.30;;;;;;5033186;28;20451;-68
2021/01/30 06:03:58;;;;;;;1.10;1.00;;;23.80;60.20;;;;;;5033165;28;20945;-67
2021/01/30 06:06:27;;;;;;;1.00;0.90;;;23.80;60.20;;;;;;5033118;28;20440;-67
2021/01/30 06:08:59;;;;;;;1.00;0.90;;;23.80;60.20;;;;;;5032957;28;20497;-68
2021/01/30 06:11:26;;;;;;;1.00;0.90;;;23.80;60.20;;;;;;5033341;28;20444;-68
2021/01/30 06:13:56;;;;;;;1.30;1.20;;;23.80;60.00;;;;;;5036823;28;20447;-67
2021/01/30 06:16:39;;;;;;;1.00;0.90;;;23.80;60.40;;;;;;5037195;28;20451;-68
2021/01/30 06:19:12;;;;;;;1.03;0.93;;;23.80;60.20;;;;;;5037185;28;20436;-68
2021/01/30 06:21:39;;;;;;;1.53;0.97;;;23.80;59.90;;;;;;5037154;28;20435;-68
2021/01/30 06:30:50;;;;;;;0.93;0.80;;;23.80;60.30;;;;;;5036779;28;20410;-67
2021/01/30 06:33:30;;;;;;;1.00;0.83;;;23.70;60.40;;;;;;5036654;28;20455;-68
2021/01/30 06:36:08;;;;;;;1.00;0.90;;;23.80;60.20;;;;;;5036776;28;20443;-66
2021/01/30 06:38:40;;;;;;;1.00;0.80;;;23.80;60.10;;;;;;5036799;28;20435;-68
2021/01/30 06:41:13;;;;;;;1.10;0.90;;;23.80;60.20;;;;;;5036739;28;20486;-67
2021/01/30 06:43:45;;;;;;;1.10;1.00;;;23.80;59.90;;;;;;5036353;28;20909;-68
2021/01/30 06:46:14;;;;;;;1.00;0.83;;;23.80;59.80;;;;;;5036366;28;20927;-68
2021/01/30 06:48:44;;;;;;;1.00;0.90;;;23.80;59.80;;;;;;5036500;28;20488;-68
2021/01/30 06:51:29;;;;;;;0.90;0.80;;;23.80;59.80;;;;;;5036250;28;20984;-68
2021/01/30 06:54:14;;;;;;;1.30;0.90;;;23.80;59.80;;;;;;5036138;28;20474;-68
2021/01/30 06:56:41;;;;;;;1.93;0.90;;;23.80;59.60;;;;;;5036148;28;20433;-66
2021/01/30 06:59:14;;;;;;;0.90;0.80;;;23.80;59.80;;;;;;5036397;28;20447;-68
2021/01/30 07:01:43;;;;;;;1.10;0.80;;;23.80;59.70;;;;;;5036327;28;20436;-67
2021/01/30 07:04:29;;;;;;;1.10;0.80;;;23.80;59.70;;;;;;5036019;28;20938;-68
2021/01/30 07:07:05;;;;;;;1.10;0.97;;;23.80;59.70;;;;;;5036167;28;20514;-67
2021/01/30 07:09:46;;;;;;;1.40;0.90;;;23.80;59.60;;;;;;5036150;28;20479;-68
2021/01/30 07:12:17;;;;;;;1.00;0.90;;;23.80;59.50;;;;;;5036201;28;20816;-68
2021/01/30 07:15:07;;;;;;;2.40;0.90;;;23.80;59.50;;;;;;5036135;28;20427;-67
2021/01/30 07:17:59;;;;;;;1.00;0.90;;;23.80;59.60;;;;;;5036023;28;20448;-68
2021/01/30 07:20:32;;;;;;;2.00;0.87;;;23.80;59.50;;;;;;5035692;28;20437;-67
2021/01/30 07:23:04;;;;;;;1.00;0.80;;;23.80;59.60;;;;;;5035461;28;20428;-67
2021/01/30 07:28:58;;;;;;;0.93;0.80;;;23.80;59.50;;;;;;5035939;28;20464;-68
2021/01/30 07:31:30;;;;;;;1.20;0.80;;;23.80;59.50;;;;;;5035778;28;20790;-67
2021/01/30 07:37:33;;;;;;;1.50;0.87;;;23.80;59.70;;;;;;5025703;28;20450;-68
2021/01/30 07:40:03;;;;;;;1.00;0.87;;;23.80;59.90;;;;;;5035384;28;20490;-68
2021/01/30 07:42:38;;;;;;;1.00;0.80;;;23.80;59.60;;;;;;5035713;28;20783;-68
2021/01/30 08:05:42;;;;;;;1.00;0.90;;;23.70;59.20;;;;;;5035050;28;20814;-68
2021/01/30 08:11:46;;;;;;;1.00;0.80;;;23.70;59.40;;;;;;5035034;28;20412;-68
2021/01/30 08:14:24;;;;;;;1.97;1.10;;;23.70;59.50;;;;;;5035135;28;20480;-67
2021/01/30 08:17:02;;;;;;;2.30;1.17;;;23.70;59.30;;;;;;5035019;28;20483;-67
2021/01/30 08:19:37;;;;;;;1.87;1.23;;;23.80;59.30;;;;;;5034947;28;20439;-67
2021/01/30 08:22:10;;;;;;;3.30;1.40;;;23.80;59.80;;;;;;5034526;28;20436;-68
2021/01/30 08:24:45;;;;;;;1.50;1.17;;;23.80;60.20;;;;;;5034904;28;20437;-67
2021/01/30 08:27:16;;;;;;;1.60;1.10;;;23.80;60.00;;;;;;5034752;28;20442;-63
2021/01/30 08:29:45;;;;;;;6.80;1.37;;;23.80;59.60;;;;;;5034636;28;20823;-63
2021/01/30 08:32:32;;;;;;;6.53;1.77;;;23.80;59.70;;;;;;5034298;28;20458;-63
2021/01/30 08:35:41;;;;;;;4.70;1.37;;;23.80;60.40;;;;;;5034223;28;20445;-63
2021/01/30 08:38:10;;;;;;;4.87;1.30;;;23.80;61.20;;;;;;5034176;28;20515;-63
2021/01/30 08:40:49;;;;;;;3.77;1.30;;;23.80;61.60;;;;;;5034436;28;20443;-63
2021/01/30 08:46:41;;;;;;;3.23;1.00;;;23.80;61.90;;;;;;5034508;28;20422;-63
2021/01/30 08:49:22;;;;;;;2.63;1.40;;;23.80;62.20;;;;;;5034292;28;20967;-62
2021/01/30 08:51:50;;;;;;;2.80;1.23;;;23.80;61.20;;;;;;5034317;28;20778;-62
2021/01/30 08:54:35;;;;;;;5.67;1.40;;;23.80;61.40;;;;;;5034828;28;20924;-63
2021/01/30 08:57:02;;;;;;;3.70;1.83;;;23.80;62.40;;;;;;5033969;28;20773;-63
2021/01/30 08:59:56;;;;;;;3.87;1.20;;;23.80;61.80;;;;;;5034084;28;20460;-63
2021/01/30 09:02:48;;;;;;;2.40;1.20;;;23.80;61.60;;;;;;4987495;28;20451;-63
2021/01/30 09:05:37;;;;;;;5.77;1.73;;;23.80;61.40;;;;;;5034005;28;20453;-63
2021/01/30 09:08:37;;;;;;;1.57;0.90;;;23.80;61.30;;;;;;5034035;28;20505;-63
2021/01/30 09:11:33;;;;;;;1.60;1.30;;;23.80;61.40;;;;;;5033691;28;20450;-63
2021/01/30 09:14:05;;;;;;;4.60;1.10;;;23.80;61.70;;;;;;5033755;28;20942;-63
2021/01/30 09:16:43;;;;;;;1.67;1.20;;;23.80;61.40;;;;;;5034720;28;20446;-63
2021/01/30 09:19:18;;;;;;;1.50;1.00;;;23.80;61.00;;;;;;5033907;28;20452;-63
2021/01/30 09:21:57;;;;;;;1.77;0.90;;;23.80;61.30;;;;;;5033872;28;20438;-63
2021/01/30 09:25:01;;;;;;;1.20;0.90;;;23.90;61.50;;;;;;5033773;28;20704;-63
2021/01/30 09:27:30;;;;;;;2.07;1.40;;;23.90;61.40;;;;;;5033830;28;20906;-63
2021/01/30 09:30:03;;;;;;;2.83;1.27;;;23.80;62.30;;;;;;5033681;28;20545;-63
2021/01/30 09:32:35;;;;;;;1.30;1.10;;;23.80;61.20;;;;;;5033808;28;20436;-63
2021/01/30 09:35:07;;;;;;;2.70;1.10;;;23.80;61.20;;;;;;5033715;28;20436;-63
2021/01/30 09:37:37;;;;;;;4.10;1.17;;;23.90;61.20;;;;;;5033378;28;20889;-63
2021/01/30 09:40:07;;;;;;;1.17;0.90;;;23.90;61.30;;;;;;5033954;28;20787;-63
2021/01/30 09:42:34;;;;;;;1.93;1.10;;;23.90;61.10;;;;;;5033600;28;20471;-63
2021/01/30 09:45:03;;;;;;;4.27;1.33;;;23.90;60.90;;;;;;5033600;28;20448;-64
2021/01/30 09:47:30;;;;;;;3.13;1.20;;;23.90;60.40;;;;;;5035258;28;20452;-64
2021/01/30 09:49:59;;;;;;;2.43;1.00;;;23.80;59.90;;;;;;5037621;28;20503;-64
2021/01/30 09:52:25;;;;;;;1.37;1.00;;;23.90;60.10;;;;;;5037357;28;20961;-64
2021/01/30 09:54:53;;;;;;;5.33;1.70;;;23.80;60.00;;;;;;5037675;28;20451;-64
2021/01/30 09:57:23;;;;;;;1.10;1.00;;;23.80;59.80;;;;;;5037287;28;20930;-64
2021/01/30 10:17:07;;;;;;;1.47;1.20;;;23.80;60.50;;;;;;5037334;28;20458;-64
2021/01/30 10:19:35;;;;;;;2.20;1.10;;;23.80;59.90;;;;;;5037048;28;20443;-64
2021/01/30 10:22:14;;;;;;;2.23;1.00;;;23.80;60.40;;;;;;5037062;28;20443;-64
2021/01/30 10:24:40;;;;;;;1.10;0.90;;;23.90;60.60;;;;;;5037014;28;20463;-65
2021/01/30 10:27:14;;;;;;;1.77;1.00;;;23.90;59.80;;;;;;5036952;28;20444;-64
2021/01/30 10:29:40;;;;;;;4.90;1.17;;;23.90;60.30;;;;;;5036590;28;21002;-64
2021/01/30 10:32:12;;;;;;;1.20;1.00;;;23.90;60.20;;;;;;5036861;28;20444;-63
2021/01/30 10:34:43;;;;;;;1.67;0.80;;;23.90;60.00;;;;;;5036756;28;20436;-63
2021/01/30 10:37:14;;;;;;;2.30;1.10;;;23.90;59.50;;;;;;5036500;28;20476;-64
2021/01/30 10:49:48;;;;;;;1.00;0.83;;;23.90;59.80;;;;;;5036400;28;20467;-64
2021/01/30 10:55:58;;;;;;;1.20;0.93;;;23.90;59.90;;;;;;5036936;28;20433;-63
2021/01/30 11:01:46;;;;;;;5.73;1.10;;;23.90;59.80;;;;;;5036582;28;20401;-64
2021/01/30 11:07:40;;;;;;;2.07;0.90;;;23.90;59.70;;;;;;5036688;28;21175;-64
2021/01/30 11:10:18;;;;;;;1.13;0.90;;;23.90;59.60;;;;;;5035871;28;20491;-64
2021/01/30 11:20:02;;;;;;;1.50;1.00;;;23.90;59.90;;;;;;5036003;28;20459;-64
2021/01/30 11:22:29;;;;;;;1.80;0.90;;;23.90;60.30;;;;;;5036111;28;20509;-64
2021/01/30 11:25:09;;;;;;;4.73;1.03;;;23.90;59.70;;;;;;5036009;28;20445;-64
2021/01/30 11:27:40;;;;;;;1.97;1.10;;;23.90;59.50;;;;;;5035954;28;20481;-64
2021/01/30 11:30:19;;;;;;;1.00;0.80;;;24.00;59.20;;;;;;5035784;28;20562;-64
2021/01/30 11:32:49;;;;;;;1.13;1.00;;;23.90;59.30;;;;;;5035847;28;20456;-64
2021/01/30 11:38:38;;;;;;;1.90;1.10;;;24.00;59.60;;;;;;5024884;28;20495;-64
2021/01/30 11:41:05;;;;;;;3.50;1.00;;;23.90;59.80;;;;;;5035604;28;20954;-64
2021/01/30 11:43:32;;;;;;;1.30;0.90;;;24.00;59.80;;;;;;5035563;28;20447;-64
2021/01/30 11:45:58;;;;;;;2.50;1.00;;;23.90;59.80;;;;;;5035209;28;20452;-63
2021/01/30 11:48:25;;;;;;;1.60;1.00;;;24.00;59.80;;;;;;5035451;28;20446;-63
2021/01/30 11:50:51;;;;;;;1.60;1.00;;;24.00;59.60;;;;;;5035405;28;20489;-64
2021/01/30 11:53:20;;;;;;;1.60;1.03;;;24.00;59.10;;;;;;5035362;28;20448;-64
2021/01/30 11:55:47;;;;;;;3.20;0.90;;;24.00;59.20;;;;;;5035388;28;20479;-64
2021/01/30 11:58:15;;;;;;;3.10;0.93;;;24.00;59.40;;;;;;5035296;28;20447;-64
2021/01/30 12:00:42;;;;;;;3.87;1.23;;;24.00;58.90;;;;;;5035841;28;20445;-64
2021/01/30 12:03:14;;;;;;;6.27;1.20;;;24.00;59.50;;;;;;5035262;28;20444;-64
2021/01/30 12:05:41;;;;;;;3.43;1.70;;;24.00;59.40;;;;;;5035205;28;20426;-63
2021/01/30 12:08:07;;;;;;;2.47;1.20;;;24.00;59.20;;;;;;5035125;28;20452;-64
2021/01/30 12:10:33;;;;;;;1.37;1.20;;;24.10;59.50;;;;;;5034334;28;20970;-64
2021/01/30 12:12:59;;;;;;;3.00;1.10;;;24.00;59.20;;;;;;5034697;28;20451;-64
2021/01/30 12:15:26;;;;;;;1.80;1.17;;;24.00;59.40;;;;;;5034938;28;20455;-64
2021/01/30 12:17:52;;;;;;;4.00;1.10;;;24.00;59.30;;;;;;5034890;28;20799;-64
2021/01/30 12:20:22;;;;;;;2.53;1.00;;;24.00;59.10;;;;;;5034639;28;20955;-64
2021/01/30 12:22:49;;;;;;;2.27;1.00;;;24.00;59.60;;;;;;5034820;28;20436;-65
2021/01/30 12:25:17;;;;;;;5.13;1.07;;;24.00;59.50;;;;;;5034719;28;20796;-64
2021/01/30 12:27:49;;;;;;;2.90;1.10;;;24.00;59.10;;;;;;5034745;28;20443;-64
2021/01/30 12:30:16;;;;;;;1.73;1.10;;;24.00;58.90;;;;;;5034305;28;20979;-64
2021/01/30 12:32:43;;;;;;;1.57;1.13;;;24.00;59.10;;;;;;5034697;28;20470;-64
2021/01/30 12:35:11;;;;;;;5.27;1.33;;;24.00;59.30;;;;;;5034548;28;20454;-64
2021/01/30 12:37:38;;;;;;;2.40;1.43;;;24.00;59.30;;;;;;5034269;28;20448;-64
2021/01/30 12:40:06;;;;;;;2.50;1.87;;;24.00;59.30;;;;;;5034467;28;20452;-63
2021/01/30 12:42:32;;;;;;;4.50;1.40;;;24.00;59.10;;;;;;5034085;28;20973;-63
2021/01/30 12:44:58;;;;;;;5.63;2.10;;;24.00;59.50;;;;;;5034392;28;20453;-63
2021/01/30 12:47:25;;;;;;;2.90;1.57;;;24.00;59.50;;;;;;5034309;28;20445;-62
2021/01/30 12:49:52;;;;;;;6.10;2.07;;;24.00;59.80;;;;;;5033962;28;20991;-63
2021/01/30 12:52:19;;;;;;;23.30;4.00;;;24.00;60.00;;;;;;5033945;28;20456;-62
2021/01/30 12:54:45;;;;;;;13.10;2.60;;;24.00;60.00;;;;;;5034194;28;20830;-62
2021/01/30 12:57:11;;;;;;;23.30;3.83;;;24.00;59.70;;;;;;5034149;28;20810;-62
2021/01/30 12:59:37;;;;;;;34.33;3.47;;;24.00;59.90;;;;;;5034140;28;20842;-62
2021/01/30 13:02:04;;;;;;;30.13;3.53;;;24.00;59.90;;;;;;5033813;28;20449;-63
2021/01/30 13:04:30;;;;;;;15.43;2.60;;;24.00;59.90;;;;;;5034104;28;20502;-63
2021/01/30 13:06:58;;;;;;;22.97;3.27;;;24.00;59.70;;;;;;5033706;28;20942;-62
2021/01/30 13:09:25;;;;;;;15.10;2.20;;;23.90;59.60;;;;;;5033962;28;20484;-63
2021/01/30 13:11:51;;;;;;;12.60;2.43;;;23.90;59.10;;;;;;5033659;28;20970;-62
2021/01/30 13:14:18;;;;;;;8.10;2.03;;;23.90;59.40;;;;;;5033651;28;20435;-62
2021/01/30 13:16:44;;;;;;;13.33;2.40;;;24.00;59.60;;;;;;5033621;28;20444;-62
2021/01/30 13:19:11;;;;;;;13.23;2.47;;;23.90;59.60;;;;;;5034333;28;20453;-63
2021/01/30 13:21:37;;;;;;;9.10;1.73;;;23.90;59.50;;;;;;5033532;28;20436;-62
2021/01/30 13:24:05;;;;;;;11.93;1.93;;;23.90;59.50;;;;;;5033737;28;20451;-62
2021/01/30 13:26:38;;;;;;;12.67;1.57;;;23.90;59.50;;;;;;5033499;28;20437;-62
2021/01/30 13:29:04;;;;;;;11.73;3.17;;;23.90;59.50;;;;;;5033745;28;20475;-62
2021/01/30 13:31:38;;;;;;;5.37;1.50;;;23.90;59.50;;;;;;5033692;28;20510;-62
2021/01/30 13:34:04;;;;;;;8.40;2.20;;;23.90;59.50;;;;;;5033740;28;20546;-62
2021/01/30 13:36:31;;;;;;;2.77;1.80;;;23.90;59.50;;;;;;5033397;28;20440;-63
2021/01/30 13:38:57;;;;;;;6.13;1.90;;;23.90;59.50;;;;;;5033766;28;20527;-62
2021/01/30 13:41:24;;;;;;;7.20;1.70;;;23.90;59.50;;;;;;5033625;28;20804;-62
2021/01/30 13:43:50;;;;;;;5.47;1.77;;;23.90;59.50;;;;;;5033575;28;20799;-62
2021/01/30 13:46:16;;;;;;;4.70;1.63;;;23.90;59.50;;;;;;5033284;28;20452;-62
2021/01/30 13:48:43;;;;;;;2.60;1.60;;;23.90;59.40;;;;;;5033555;28;20790;-62
2021/01/30 13:51:09;;;;;;;3.93;1.80;;;23.90;59.30;;;;;;5033532;28;20632;-62
2021/01/30 13:53:35;;;;;;;8.40;2.13;;;23.90;59.40;;;;;;5033524;28;20445;-62
2021/01/30 13:56:05;;;;;;;9.37;2.33;;;23.90;59.40;;;;;;5033482;28;20444;-62
2021/01/30 13:58:32;;;;;;;4.53;1.20;;;23.90;59.50;;;;;;5033137;28;20451;-62
2021/01/30 14:00:58;;;;;;;6.77;1.90;;;23.90;59.60;;;;;;5033460;28;20444;-62
2021/01/30 14:03:24;;;;;;;3.83;1.13;;;23.80;59.50;;;;;;5033055;28;21062;-62
2021/01/30 14:05:51;;;;;;;3.00;1.23;;;23.90;59.50;;;;;;5033418;28;20497;-62
2021/01/30 14:08:17;;;;;;;5.73;1.50;;;23.90;59.70;;;;;;5033404;28;20444;-62
2021/01/30 14:10:43;;;;;;;9.83;1.60;;;23.80;59.50;;;;;;5033264;28;20817;-62
2021/01/30 14:13:09;;;;;;;5.10;1.50;;;23.80;59.50;;;;;;5033372;28;20460;-62
2021/01/30 14:15:36;;;;;;;2.90;1.70;;;23.80;59.50;;;;;;5033262;28;20455;-62
2021/01/30 14:18:03;;;;;;;1.37;1.07;;;23.80;59.40;;;;;;5033276;28;20814;-62
2021/01/30 14:20:30;;;;;;;6.33;1.40;;;23.80;59.40;;;;;;5032971;28;20955;-62
2021/01/30 14:22:56;;;;;;;2.70;1.37;;;23.80;59.50;;;;;;5033194;28;20445;-61
2021/01/30 14:25:24;;;;;;;4.07;1.13;;;23.80;59.50;;;;;;5033191;28;20452;-62
2021/01/30 14:27:50;;;;;;;1.57;1.23;;;23.90;59.40;;;;;;5032861;28;20447;-62
2021/01/30 14:30:18;;;;;;;2.40;1.50;;;23.90;59.40;;;;;;5033086;28;20861;-62
2021/01/30 14:32:45;;;;;;;5.17;2.27;;;23.80;59.40;;;;;;5033515;28;20813;-62
2021/01/30 14:35:14;;;;;;;4.70;1.27;;;23.80;59.40;;;;;;5036817;28;20908;-62
2021/01/30 14:37:40;;;;;;;5.40;1.40;;;23.80;59.30;;;;;;5036580;28;20492;-63
2021/01/30 14:40:09;;;;;;;3.87;1.40;;;23.80;59.40;;;;;;5036818;28;20433;-63
2021/01/30 14:42:35;;;;;;;2.70;1.50;;;23.80;59.50;;;;;;5036728;28;20451;-62
2021/01/30 14:45:02;;;;;;;3.77;1.30;;;23.80;59.40;;;;;;5036782;28;20443;-61
2021/01/30 14:47:29;;;;;;;5.83;1.20;;;23.80;59.40;;;;;;5036366;28;20974;-62